Taiyoung Star — DSON6 — position and weather

sailwx.info

Track history (hours):
 
Tides and Currents Weather Stations Pressure Air Temp Water Temp Dewpoint Dewpoint Depression Visibility Wind Speed Wind Dir Waves Ship Positions

Taiyoung Star

Last reported at 2018-Feb-22 14:49 UTC. Time now 2018-Feb-22 18:36 UTC.
Position N 34°26' E 134°26'.

Length 79 m; draft 3.9 m.

Type: Cargo ship. MMSI: 440970000.

Date/timePositionNaut miles runAvg speedWind from/ knotsBaromVisibWave heightAir tempDewpointWater temp
2018-Feb-22 14:49N 34°26' E 134°26'310.3
2018-Feb-22 14:30N 34°28' E 134°29'510.1
2018-Feb-22 14:00N 34°30' E 134°35'510.1
2018-Feb-22 13:31N 34°31' E 134°41'5 9.9
2018-Feb-22 13:00N 34°33' E 134°46'5 9.5
2018-Feb-22 12:31N 34°35' E 134°52'4 8.9
2018-Feb-22 12:00N 34°37' E 134°57'4 7.8
2018-Feb-22 11:31N 34°37' E 135°01'4 8.1
2018-Feb-22 11:01N 34°36' E 135°06'5 9.2
2018-Feb-22 10:30N 34°36' E 135°12'5 9.0
2018-Feb-22 10:01N 34°37' E 135°17'4 7.7
2018-Feb-22 09:30N 34°41' E 135°18'2 3.5
2018-Feb-22 08:59N 34°43' E 135°17'0 0.0
2018-Feb-22 08:29N 34°43' E 135°17'0 0.0
2018-Feb-22 07:56N 34°43' E 135°17'0 0.0
2018-Feb-22 07:29N 34°43' E 135°17'0 0.0
2018-Feb-22 06:59N 34°43' E 135°17'0 0.0
2018-Feb-22 06:29N 34°43' E 135°17'0 0.0
2018-Feb-22 05:59N 34°43' E 135°17'0 0.0
2018-Feb-22 05:29N 34°43' E 135°17'0 0.0
2018-Feb-22 04:59N 34°43' E 135°17'0 0.0
2018-Feb-22 04:29N 34°43' E 135°17'0 0.0
2018-Feb-22 03:59N 34°43' E 135°17'0 0.0
2018-Feb-22 03:29N 34°43' E 135°17'0 0.0
2018-Feb-22 02:53N 34°43' E 135°17'0 0.0
2018-Feb-22 02:29N 34°43' E 135°17'0 0.0
2018-Feb-22 01:59N 34°43' E 135°17'0 0.0
2018-Feb-22 01:29N 34°43' E 135°17'0 0.0
2018-Feb-22 00:59N 34°43' E 135°17'0 0.0
2018-Feb-22 00:29N 34°43' E 135°17'0 0.0
2018-Feb-21 23:59N 34°43' E 135°17'0 0.0
2018-Feb-21 23:29N 34°43' E 135°17'0 0.0
2018-Feb-21 22:59N 34°43' E 135°17'0 0.1
2018-Feb-21 22:30N 34°43' E 135°17'3 5.6
2018-Feb-21 22:00N 34°40' E 135°18'3 6.6
2018-Feb-21 21:30N 34°37' E 135°16'3 4.9
2018-Feb-21 20:58N 34°37' E 135°13'0 0.0
2018-Feb-21 20:25N 34°37' E 135°13'0 0.0
2018-Feb-21 19:58N 34°37' E 135°13'0 0.1
2018-Feb-21 19:28N 34°37' E 135°13'0 0.0
2018-Feb-21 18:55N 34°37' E 135°13'0 0.0
2018-Feb-21 18:28N 34°37' E 135°13'0 0.0
2018-Feb-21 17:58N 34°37' E 135°13'0 0.0
2018-Feb-21 17:28N 34°37' E 135°13'0 0.0
2018-Feb-21 16:58N 34°37' E 135°13'0 0.0
2018-Feb-21 16:28N 34°37' E 135°13'0 0.0
2018-Feb-21 15:58N 34°37' E 135°13'0 0.0
2018-Feb-21 15:28N 34°37' E 135°13'0 0.0
2018-Feb-21 14:58N 34°37' E 135°13'0 0.0
2018-Feb-21 14:28N 34°37' E 135°13'0 0.0
2018-Feb-21 13:58N 34°37' E 135°13'0 0.0
2018-Feb-21 13:28N 34°37' E 135°13'0 0.0
2018-Feb-21 12:58N 34°37' E 135°13'0 0.0
2018-Feb-21 12:28N 34°37' E 135°13'0 0.0
2018-Feb-21 11:58N 34°37' E 135°13'0 0.0
2018-Feb-21 11:28N 34°37' E 135°13'0 0.1
2018-Feb-21 10:58N 34°37' E 135°13'0 0.0
2018-Feb-21 10:28N 34°37' E 135°13'0 0.0
2018-Feb-21 09:58N 34°37' E 135°13'0 0.0
2018-Feb-21 09:28N 34°37' E 135°13'0 0.0
2018-Feb-21 08:58N 34°37' E 135°13'0 0.0
2018-Feb-21 08:28N 34°37' E 135°13'0 0.2
2018-Feb-21 07:58N 34°37' E 135°13'1 3.0
2018-Feb-21 07:31N 34°36' E 135°12'4 8.8
2018-Feb-21 07:00N 34°35' E 135°07'510.1
2018-Feb-21 06:30N 34°37' E 135°01'510.3
2018-Feb-21 06:00N 34°36' E 134°55'4 8.7
2018-Feb-21 05:30N 34°34' E 134°50'4 8.3
2018-Feb-21 04:59N 34°32' E 134°46'4 8.5
2018-Feb-21 04:30N 34°29' E 134°41'4 8.5
2018-Feb-21 04:00N 34°28' E 134°36'4 8.6
2018-Feb-21 03:30N 34°27' E 134°32'4 8.7
2018-Feb-21 03:00N 34°25' E 134°27'5 8.8
2018-Feb-21 02:29N 34°24' E 134°21'83 7.8
2018-Feb-20 15:49N 33°60' E 132°45'310.8
2018-Feb-20 15:30N 33°57' E 132°43'610.7
2018-Feb-20 14:55N 33°54' E 132°36'810.0
2018-Feb-20 14:09N 33°51' E 132°28'310.1
2018-Feb-20 13:51N 33°50' E 132°24'410.1
2018-Feb-20 13:28N 33°50' E 132°20'5 9.9
2018-Feb-20 12:55N 33°49' E 132°13'4 9.9
2018-Feb-20 12:30N 33°48' E 132°08'5 9.4
2018-Feb-20 11:58N 33°45' E 132°03'5 9.3
2018-Feb-20 11:28N 33°45' E 131°58'4 9.1
2018-Feb-20 11:00N 33°45' E 131°53'5 8.9
2018-Feb-20 10:25N 33°45' E 131°46'4 9.3
2018-Feb-20 10:00N 33°46' E 131°42'5 9.2
2018-Feb-20 09:30N 33°47' E 131°36'5 9.4
2018-Feb-20 09:00N 33°48' E 131°31'5 9.7
2018-Feb-20 08:29N 33°49' E 131°25'5 9.7
2018-Feb-20 08:00N 33°50' E 131°19'5 9.8
2018-Feb-20 07:30N 33°51' E 131°14'5 9.8
2018-Feb-20 07:00N 33°53' E 131°08'5 9.8
2018-Feb-20 06:30N 33°56' E 131°04'4 8.6
2018-Feb-20 06:00N 33°58' E 130°59'4 7.9
2018-Feb-20 05:30N 33°55' E 130°56'2 4.6
2018-Feb-20 05:00N 33°55' E 130°53'4 7.2
2018-Feb-20 04:30N 33°58' E 130°50'4 8.5
2018-Feb-20 04:01N 34°02' E 130°49'4 8.7
2018-Feb-20 03:30N 34°04' E 130°44'3 6.9
2018-Feb-20 03:00N 34°07' E 130°42'4 7.8
2018-Feb-20 02:30N 34°10' E 130°39'4 7.9
2018-Feb-20 02:00N 34°07' E 130°36'4 8.2
2018-Feb-20 01:30N 34°04' E 130°32'4 8.1
2018-Feb-20 01:00N 34°01' E 130°29'4 7.3
2018-Feb-20 00:30N 33°59' E 130°25'4 7.5
2018-Feb-20 00:00N 33°58' E 130°21'4 7.7
2018-Feb-19 23:30N 33°60' E 130°16'4 8.4
2018-Feb-19 23:00N 34°02' E 130°12'4 7.7
2018-Feb-19 22:27N 34°03' E 130°07'  
2018-Feb-17 11:35N 34°02' E 130°06'1 9.6
2018-Feb-17 11:30N 34°03' E 130°07'5 9.8
2018-Feb-17 10:57N 34°03' E 130°13'4 9.2
2018-Feb-17 10:30N 34°02' E 130°18'5 9.3
2018-Feb-17 10:00N 34°01' E 130°24'5 9.8
2018-Feb-17 09:30N 34°03' E 130°29'5 9.3
2018-Feb-17 09:00N 34°06' E 130°34'4 8.3
2018-Feb-17 08:31N 34°04' E 130°38'4 8.4
2018-Feb-17 08:01N 34°03' E 130°43'4 8.2
2018-Feb-17 07:30N 34°02' E 130°48'4 7.9
2018-Feb-17 07:00N 33°60' E 130°52'3 6.9
2018-Feb-17 06:31N 33°57' E 130°52'3 6.3
2018-Feb-17 06:00N 33°55' E 130°56'4 7.2
2018-Feb-17 05:30N 33°58' E 130°58'4 7.7
2018-Feb-17 05:00N 33°58' E 131°02'4 8.8
2018-Feb-17 04:30N 33°55' E 131°07'4 8.1
2018-Feb-17 03:59N 33°53' E 131°11'4 8.2
2018-Feb-17 03:30N 33°52' E 131°15'4 8.6
2018-Feb-17 03:00N 33°50' E 131°20'4 8.7
2018-Feb-17 02:30N 33°50' E 131°25'4 8.9
2018-Feb-17 02:00N 33°49' E 131°31'4 8.8
2018-Feb-17 01:30N 33°48' E 131°36'4 9.0
2018-Feb-17 01:00N 33°47' E 131°41'5 9.1
2018-Feb-17 00:30N 33°46' E 131°46'4 9.0
2018-Feb-17 00:00N 33°45' E 131°52'8 8.9
2018-Feb-16 23:07N 33°46' E 132°01'1 8.5
2018-Feb-16 23:00N 33°46' E 132°02'8 9.0
2018-Feb-16 22:08N 33°49' E 132°11'4 8.9
2018-Feb-16 21:44N 33°50' E 132°15'2 9.0
2018-Feb-16 21:30N 33°50' E 132°17'4 8.5
2018-Feb-16 21:00N 33°50' E 132°23'5 9.0
2018-Feb-16 20:26N 33°52' E 132°28'1210.0
2018-Feb-16 19:16N 33°57' E 132°41'310.7
2018-Feb-16 19:00N 33°59' E 132°43'72 9.4
2018-Feb-16 11:20N 34°27' E 134°03'1610.6
2018-Feb-16 09:46N 34°25' E 134°23'3 9.9
2018-Feb-16 09:29N 34°26' E 134°27'5 9.8
2018-Feb-16 09:00N 34°28' E 134°32'5 9.5
2018-Feb-16 08:30N 34°30' E 134°37'5 9.4
2018-Feb-16 08:00N 34°32' E 134°42'5 9.4
2018-Feb-16 07:30N 34°34' E 134°48'4 8.6
2018-Feb-16 07:00N 34°35' E 134°52'4 7.5
2018-Feb-16 06:30N 34°37' E 134°57'4 7.3
2018-Feb-16 06:00N 34°37' E 135°01'3 6.0
2018-Feb-16 05:30N 34°36' E 135°04'4 7.4
2018-Feb-16 05:00N 34°32' E 135°05'5 9.2
2018-Feb-16 04:30N 34°28' E 135°04'5 8.9
2018-Feb-16 04:00N 34°23' E 135°03'4 8.6
2018-Feb-16 03:30N 34°20' E 135°00'4 8.7
2018-Feb-16 03:01N 34°15' E 134°59'5 9.4
2018-Feb-16 02:30N 34°11' E 134°59'5 9.4
2018-Feb-16 02:00N 34°06' E 135°00'5 9.6
2018-Feb-16 01:30N 34°01' E 135°01'5 9.4
2018-Feb-16 01:00N 33°57' E 135°01'4 9.1
2018-Feb-16 00:31N 33°52' E 135°02'165 8.0
2018-Feb-15 03:51N 34°34' E 138°15'7 7.5
2018-Feb-15 02:55N 34°35' E 138°23'5 7.2
2018-Feb-15 02:16N 34°35' E 138°29'2 6.9
2018-Feb-15 01:59N 34°35' E 138°31'3 6.9
2018-Feb-15 01:29N 34°35' E 138°35'4 7.1
2018-Feb-15 00:58N 34°35' E 138°40'4 7.8
2018-Feb-15 00:29N 34°35' E 138°44'4 7.6
2018-Feb-15 00:00N 34°35' E 138°49'4 6.9
2018-Feb-14 23:29N 34°35' E 138°53'3 5.9
2018-Feb-14 23:00N 34°36' E 138°56'3 6.4
2018-Feb-14 22:29N 34°37' E 139°00'3 6.8
2018-Feb-14 22:00N 34°40' E 139°02'3 6.9
2018-Feb-14 21:30N 34°43' E 139°04'4 7.2
2018-Feb-14 20:59N 34°46' E 139°06'13 7.0
2018-Feb-14 19:06N 34°59' E 139°12'0 4.9
2018-Feb-14 19:00N 34°59' E 139°12'2 4.8
2018-Feb-14 18:30N 35°00' E 139°15'2 3.6
2018-Feb-14 17:59N 35°01' E 139°17'2 3.2
2018-Feb-14 17:30N 35°03' E 139°18'1 2.6
2018-Feb-14 17:00N 35°03' E 139°19'2 2.9
2018-Feb-14 16:29N 35°04' E 139°21'1 2.8
2018-Feb-14 16:00N 35°04' E 139°23'2 3.1
2018-Feb-14 15:30N 35°04' E 139°25'2 3.1
2018-Feb-14 14:59N 35°04' E 139°27'2 3.9
2018-Feb-14 14:30N 35°04' E 139°29'2 3.6
2018-Feb-14 14:01N 35°03' E 139°31'2 3.1
2018-Feb-14 13:29N 35°04' E 139°33'2 4.9
2018-Feb-14 13:00N 35°05' E 139°35'3 5.2
2018-Feb-14 12:28N 35°06' E 139°38'2 4.5
2018-Feb-14 12:01N 35°06' E 139°41'2 4.4
2018-Feb-14 11:30N 35°07' E 139°43'2 4.6
2018-Feb-14 11:01N 35°09' E 139°45'3 6.4
2018-Feb-14 10:30N 35°12' E 139°46'4 8.4
2018-Feb-14 10:01N 35°16' E 139°46'510.0
2018-Feb-14 09:30N 35°21' E 139°43'4 8.7
2018-Feb-14 09:00N 35°25' E 139°43'4 8.4
2018-Feb-14 08:31N 35°27' E 139°47'4 7.9
2018-Feb-14 08:00N 35°30' E 139°51'4 7.6
2018-Feb-14 07:30N 35°34' E 139°51'4 7.5
2018-Feb-14 07:00N 35°37' E 139°48'1 0.3
2018-Feb-14 04:10N 35°37' E 139°47'0 0.0
2018-Feb-14 01:44N 35°37' E 139°47'0 0.0
2018-Feb-13 18:14N 35°37' E 139°47'0 0.0
2018-Feb-13 09:11N 35°37' E 139°47'0 0.0
2018-Feb-13 08:47N 35°37' E 139°47'0 0.0
2018-Feb-13 08:23N 35°37' E 139°47'0 0.0
2018-Feb-13 07:50N 35°37' E 139°47'0 0.1
2018-Feb-13 03:29N 35°37' E 139°48'4 5.8
2018-Feb-13 02:52N 35°34' E 139°51'0 0.2
2018-Feb-13 02:10N 35°34' E 139°50'0 0.0
2018-Feb-13 01:58N 35°34' E 139°50'0 0.0
2018-Feb-13 01:28N 35°34' E 139°50'0 0.0
2018-Feb-13 00:58N 35°34' E 139°50'0 0.0
2018-Feb-13 00:28N 35°34' E 139°50'0 0.0
2018-Feb-12 23:55N 35°34' E 139°50'0 0.0
2018-Feb-12 20:22N 35°34' E 139°50'0 0.0
2018-Feb-12 19:58N 35°34' E 139°50'0 0.0
2018-Feb-12 19:19N 35°34' E 139°50'0 0.0
2018-Feb-12 18:55N 35°34' E 139°50'0 0.1
2018-Feb-12 18:07N 35°34' E 139°50'0 0.0
2018-Feb-12 17:52N 35°34' E 139°50'0 0.0
2018-Feb-12 17:28N 35°34' E 139°50'0 0.0
2018-Feb-12 16:37N 35°34' E 139°50'0 0.0
2018-Feb-12 16:28N 35°34' E 139°50'  
Track history (hours):
 
Tides and Currents Weather Stations Pressure Air Temp Water Temp Dewpoint Dewpoint Depression Visibility Wind Speed Wind Dir Waves Ship Positions

Taiyoung Star

Last reported at 2018-Feb-22 14:49 UTC. Time now 2018-Feb-22 18:36 UTC.
Position N 34°26' E 134°26'.

Length 79 m; draft 3.9 m.

Type: Cargo ship. MMSI: 440970000.

Date/timePositionNaut miles runAvg speedWind from/ knotsBaromVisibWave heightAir tempDewpointWater temp
2018-Feb-22 14:49N 34°26' E 134°26'310.3
2018-Feb-22 14:30N 34°28' E 134°29'510.1
2018-Feb-22 14:00N 34°30' E 134°35'510.1
2018-Feb-22 13:31N 34°31' E 134°41'5 9.9
2018-Feb-22 13:00N 34°33' E 134°46'5 9.5
2018-Feb-22 12:31N 34°35' E 134°52'4 8.9
2018-Feb-22 12:00N 34°37' E 134°57'4 7.8
2018-Feb-22 11:31N 34°37' E 135°01'4 8.1
2018-Feb-22 11:01N 34°36' E 135°06'5 9.2
2018-Feb-22 10:30N 34°36' E 135°12'5 9.0
2018-Feb-22 10:01N 34°37' E 135°17'4 7.7
2018-Feb-22 09:30N 34°41' E 135°18'2 3.5
2018-Feb-22 08:59N 34°43' E 135°17'0 0.0
2018-Feb-22 08:29N 34°43' E 135°17'0 0.0
2018-Feb-22 07:56N 34°43' E 135°17'0 0.0
2018-Feb-22 07:29N 34°43' E 135°17'0 0.0
2018-Feb-22 06:59N 34°43' E 135°17'0 0.0
2018-Feb-22 06:29N 34°43' E 135°17'0 0.0
2018-Feb-22 05:59N 34°43' E 135°17'0 0.0
2018-Feb-22 05:29N 34°43' E 135°17'0 0.0
2018-Feb-22 04:59N 34°43' E 135°17'0 0.0
2018-Feb-22 04:29N 34°43' E 135°17'0 0.0
2018-Feb-22 03:59N 34°43' E 135°17'0 0.0
2018-Feb-22 03:29N 34°43' E 135°17'0 0.0
2018-Feb-22 02:53N 34°43' E 135°17'0 0.0
2018-Feb-22 02:29N 34°43' E 135°17'0 0.0
2018-Feb-22 01:59N 34°43' E 135°17'0 0.0
2018-Feb-22 01:29N 34°43' E 135°17'0 0.0
2018-Feb-22 00:59N 34°43' E 135°17'0 0.0
2018-Feb-22 00:29N 34°43' E 135°17'0 0.0
2018-Feb-21 23:59N 34°43' E 135°17'0 0.0
2018-Feb-21 23:29N 34°43' E 135°17'0 0.0
2018-Feb-21 22:59N 34°43' E 135°17'0 0.1
2018-Feb-21 22:30N 34°43' E 135°17'3 5.6
2018-Feb-21 22:00N 34°40' E 135°18'3 6.6
2018-Feb-21 21:30N 34°37' E 135°16'3 4.9
2018-Feb-21 20:58N 34°37' E 135°13'0 0.0
2018-Feb-21 20:25N 34°37' E 135°13'0 0.0
2018-Feb-21 19:58N 34°37' E 135°13'0 0.1
2018-Feb-21 19:28N 34°37' E 135°13'0 0.0
2018-Feb-21 18:55N 34°37' E 135°13'0 0.0
2018-Feb-21 18:28N 34°37' E 135°13'0 0.0
2018-Feb-21 17:58N 34°37' E 135°13'0 0.0
2018-Feb-21 17:28N 34°37' E 135°13'0 0.0
2018-Feb-21 16:58N 34°37' E 135°13'0 0.0
2018-Feb-21 16:28N 34°37' E 135°13'0 0.0
2018-Feb-21 15:58N 34°37' E 135°13'0 0.0
2018-Feb-21 15:28N 34°37' E 135°13'0 0.0
2018-Feb-21 14:58N 34°37' E 135°13'0 0.0
2018-Feb-21 14:28N 34°37' E 135°13'0 0.0
2018-Feb-21 13:58N 34°37' E 135°13'0 0.0
2018-Feb-21 13:28N 34°37' E 135°13'0 0.0
2018-Feb-21 12:58N 34°37' E 135°13'0 0.0
2018-Feb-21 12:28N 34°37' E 135°13'0 0.0
2018-Feb-21 11:58N 34°37' E 135°13'0 0.0
2018-Feb-21 11:28N 34°37' E 135°13'0 0.1
2018-Feb-21 10:58N 34°37' E 135°13'0 0.0
2018-Feb-21 10:28N 34°37' E 135°13'0 0.0
2018-Feb-21 09:58N 34°37' E 135°13'0 0.0
2018-Feb-21 09:28N 34°37' E 135°13'0 0.0
2018-Feb-21 08:58N 34°37' E 135°13'0 0.0
2018-Feb-21 08:28N 34°37' E 135°13'0 0.2
2018-Feb-21 07:58N 34°37' E 135°13'1 3.0
2018-Feb-21 07:31N 34°36' E 135°12'4 8.8
2018-Feb-21 07:00N 34°35' E 135°07'510.1
2018-Feb-21 06:30N 34°37' E 135°01'510.3
2018-Feb-21 06:00N 34°36' E 134°55'4 8.7
2018-Feb-21 05:30N 34°34' E 134°50'4 8.3
2018-Feb-21 04:59N 34°32' E 134°46'4 8.5
2018-Feb-21 04:30N 34°29' E 134°41'4 8.5
2018-Feb-21 04:00N 34°28' E 134°36'4 8.6
2018-Feb-21 03:30N 34°27' E 134°32'4 8.7
2018-Feb-21 03:00N 34°25' E 134°27'5 8.8
2018-Feb-21 02:29N 34°24' E 134°21'83 7.8
2018-Feb-20 15:49N 33°60' E 132°45'310.8
2018-Feb-20 15:30N 33°57' E 132°43'610.7
2018-Feb-20 14:55N 33°54' E 132°36'810.0
2018-Feb-20 14:09N 33°51' E 132°28'310.1
2018-Feb-20 13:51N 33°50' E 132°24'410.1
2018-Feb-20 13:28N 33°50' E 132°20'5 9.9
2018-Feb-20 12:55N 33°49' E 132°13'4 9.9
2018-Feb-20 12:30N 33°48' E 132°08'5 9.4
2018-Feb-20 11:58N 33°45' E 132°03'5 9.3
2018-Feb-20 11:28N 33°45' E 131°58'4 9.1
2018-Feb-20 11:00N 33°45' E 131°53'5 8.9
2018-Feb-20 10:25N 33°45' E 131°46'4 9.3
2018-Feb-20 10:00N 33°46' E 131°42'5 9.2
2018-Feb-20 09:30N 33°47' E 131°36'5 9.4
2018-Feb-20 09:00N 33°48' E 131°31'5 9.7
2018-Feb-20 08:29N 33°49' E 131°25'5 9.7
2018-Feb-20 08:00N 33°50' E 131°19'5 9.8
2018-Feb-20 07:30N 33°51' E 131°14'5 9.8
2018-Feb-20 07:00N 33°53' E 131°08'5 9.8
2018-Feb-20 06:30N 33°56' E 131°04'4 8.6
2018-Feb-20 06:00N 33°58' E 130°59'4 7.9
2018-Feb-20 05:30N 33°55' E 130°56'2 4.6
2018-Feb-20 05:00N 33°55' E 130°53'4 7.2
2018-Feb-20 04:30N 33°58' E 130°50'4 8.5
2018-Feb-20 04:01N 34°02' E 130°49'4 8.7
2018-Feb-20 03:30N 34°04' E 130°44'3 6.9
2018-Feb-20 03:00N 34°07' E 130°42'4 7.8
2018-Feb-20 02:30N 34°10' E 130°39'4 7.9
2018-Feb-20 02:00N 34°07' E 130°36'4 8.2
2018-Feb-20 01:30N 34°04' E 130°32'4 8.1
2018-Feb-20 01:00N 34°01' E 130°29'4 7.3
2018-Feb-20 00:30N 33°59' E 130°25'4 7.5
2018-Feb-20 00:00N 33°58' E 130°21'4 7.7
2018-Feb-19 23:30N 33°60' E 130°16'4 8.4
2018-Feb-19 23:00N 34°02' E 130°12'4 7.7
2018-Feb-19 22:27N 34°03' E 130°07'  
2018-Feb-17 11:35N 34°02' E 130°06'1 9.6
2018-Feb-17 11:30N 34°03' E 130°07'5 9.8
2018-Feb-17 10:57N 34°03' E 130°13'4 9.2
2018-Feb-17 10:30N 34°02' E 130°18'5 9.3
2018-Feb-17 10:00N 34°01' E 130°24'5 9.8
2018-Feb-17 09:30N 34°03' E 130°29'5 9.3
2018-Feb-17 09:00N 34°06' E 130°34'4 8.3
2018-Feb-17 08:31N 34°04' E 130°38'4 8.4
2018-Feb-17 08:01N 34°03' E 130°43'4 8.2
2018-Feb-17 07:30N 34°02' E 130°48'4 7.9
2018-Feb-17 07:00N 33°60' E 130°52'3 6.9
2018-Feb-17 06:31N 33°57' E 130°52'3 6.3
2018-Feb-17 06:00N 33°55' E 130°56'4 7.2
2018-Feb-17 05:30N 33°58' E 130°58'4 7.7
2018-Feb-17 05:00N 33°58' E 131°02'4 8.8
2018-Feb-17 04:30N 33°55' E 131°07'4 8.1
2018-Feb-17 03:59N 33°53' E 131°11'4 8.2
2018-Feb-17 03:30N 33°52' E 131°15'4 8.6
2018-Feb-17 03:00N 33°50' E 131°20'4 8.7
2018-Feb-17 02:30N 33°50' E 131°25'4 8.9
2018-Feb-17 02:00N 33°49' E 131°31'4 8.8
2018-Feb-17 01:30N 33°48' E 131°36'4 9.0
2018-Feb-17 01:00N 33°47' E 131°41'5 9.1
2018-Feb-17 00:30N 33°46' E 131°46'4 9.0
2018-Feb-17 00:00N 33°45' E 131°52'8 8.9
2018-Feb-16 23:07N 33°46' E 132°01'1 8.5
2018-Feb-16 23:00N 33°46' E 132°02'8 9.0
2018-Feb-16 22:08N 33°49' E 132°11'4 8.9
2018-Feb-16 21:44N 33°50' E 132°15'2 9.0
2018-Feb-16 21:30N 33°50' E 132°17'4 8.5
2018-Feb-16 21:00N 33°50' E 132°23'5 9.0
2018-Feb-16 20:26N 33°52' E 132°28'1210.0
2018-Feb-16 19:16N 33°57' E 132°41'310.7
2018-Feb-16 19:00N 33°59' E 132°43'72 9.4
2018-Feb-16 11:20N 34°27' E 134°03'1610.6
2018-Feb-16 09:46N 34°25' E 134°23'3 9.9
2018-Feb-16 09:29N 34°26' E 134°27'5 9.8
2018-Feb-16 09:00N 34°28' E 134°32'5 9.5
2018-Feb-16 08:30N 34°30' E 134°37'5 9.4
2018-Feb-16 08:00N 34°32' E 134°42'5 9.4
2018-Feb-16 07:30N 34°34' E 134°48'4 8.6
2018-Feb-16 07:00N 34°35' E 134°52'4 7.5
2018-Feb-16 06:30N 34°37' E 134°57'4 7.3
2018-Feb-16 06:00N 34°37' E 135°01'3 6.0
2018-Feb-16 05:30N 34°36' E 135°04'4 7.4
2018-Feb-16 05:00N 34°32' E 135°05'5 9.2
2018-Feb-16 04:30N 34°28' E 135°04'5 8.9
2018-Feb-16 04:00N 34°23' E 135°03'4 8.6
2018-Feb-16 03:30N 34°20' E 135°00'4 8.7
2018-Feb-16 03:01N 34°15' E 134°59'5 9.4
2018-Feb-16 02:30N 34°11' E 134°59'5 9.4
2018-Feb-16 02:00N 34°06' E 135°00'5 9.6
2018-Feb-16 01:30N 34°01' E 135°01'5 9.4
2018-Feb-16 01:00N 33°57' E 135°01'4 9.1
2018-Feb-16 00:31N 33°52' E 135°02'165 8.0
2018-Feb-15 03:51N 34°34' E 138°15'7 7.5
2018-Feb-15 02:55N 34°35' E 138°23'5 7.2
2018-Feb-15 02:16N 34°35' E 138°29'2 6.9
2018-Feb-15 01:59N 34°35' E 138°31'3 6.9
2018-Feb-15 01:29N 34°35' E 138°35'4 7.1
2018-Feb-15 00:58N 34°35' E 138°40'4 7.8
2018-Feb-15 00:29N 34°35' E 138°44'4 7.6
2018-Feb-15 00:00N 34°35' E 138°49'4 6.9
2018-Feb-14 23:29N 34°35' E 138°53'3 5.9
2018-Feb-14 23:00N 34°36' E 138°56'3 6.4
2018-Feb-14 22:29N 34°37' E 139°00'3 6.8
2018-Feb-14 22:00N 34°40' E 139°02'3 6.9
2018-Feb-14 21:30N 34°43' E 139°04'4 7.2
2018-Feb-14 20:59N 34°46' E 139°06'13 7.0
2018-Feb-14 19:06N 34°59' E 139°12'0 4.9
2018-Feb-14 19:00N 34°59' E 139°12'2 4.8
2018-Feb-14 18:30N 35°00' E 139°15'2 3.6
2018-Feb-14 17:59N 35°01' E 139°17'2 3.2
2018-Feb-14 17:30N 35°03' E 139°18'1 2.6
2018-Feb-14 17:00N 35°03' E 139°19'2 2.9
2018-Feb-14 16:29N 35°04' E 139°21'1 2.8
2018-Feb-14 16:00N 35°04' E 139°23'2 3.1
2018-Feb-14 15:30N 35°04' E 139°25'2 3.1
2018-Feb-14 14:59N 35°04' E 139°27'2 3.9
2018-Feb-14 14:30N 35°04' E 139°29'2 3.6
2018-Feb-14 14:01N 35°03' E 139°31'2 3.1
2018-Feb-14 13:29N 35°04' E 139°33'2 4.9
2018-Feb-14 13:00N 35°05' E 139°35'3 5.2
2018-Feb-14 12:28N 35°06' E 139°38'2 4.5
2018-Feb-14 12:01N 35°06' E 139°41'2 4.4
2018-Feb-14 11:30N 35°07' E 139°43'2 4.6
2018-Feb-14 11:01N 35°09' E 139°45'3 6.4
2018-Feb-14 10:30N 35°12' E 139°46'4 8.4
2018-Feb-14 10:01N 35°16' E 139°46'510.0
2018-Feb-14 09:30N 35°21' E 139°43'4 8.7
2018-Feb-14 09:00N 35°25' E 139°43'4 8.4
2018-Feb-14 08:31N 35°27' E 139°47'4 7.9
2018-Feb-14 08:00N 35°30' E 139°51'4 7.6
2018-Feb-14 07:30N 35°34' E 139°51'4 7.5
2018-Feb-14 07:00N 35°37' E 139°48'1 0.3
2018-Feb-14 04:10N 35°37' E 139°47'0 0.0
2018-Feb-14 01:44N 35°37' E 139°47'0 0.0
2018-Feb-13 18:14N 35°37' E 139°47'0 0.0
2018-Feb-13 09:11N 35°37' E 139°47'0 0.0
2018-Feb-13 08:47N 35°37' E 139°47'0 0.0
2018-Feb-13 08:23N 35°37' E 139°47'0 0.0
2018-Feb-13 07:50N 35°37' E 139°47'0 0.1
2018-Feb-13 03:29N 35°37' E 139°48'4 5.8
2018-Feb-13 02:52N 35°34' E 139°51'0 0.2
2018-Feb-13 02:10N 35°34' E 139°50'0 0.0
2018-Feb-13 01:58N 35°34' E 139°50'0 0.0
2018-Feb-13 01:28N 35°34' E 139°50'0 0.0
2018-Feb-13 00:58N 35°34' E 139°50'0 0.0
2018-Feb-13 00:28N 35°34' E 139°50'0 0.0
2018-Feb-12 23:55N 35°34' E 139°50'0 0.0
2018-Feb-12 20:22N 35°34' E 139°50'0 0.0
2018-Feb-12 19:58N 35°34' E 139°50'0 0.0
2018-Feb-12 19:19N 35°34' E 139°50'0 0.0
2018-Feb-12 18:55N 35°34' E 139°50'0 0.1
2018-Feb-12 18:07N 35°34' E 139°50'0 0.0
2018-Feb-12 17:52N 35°34' E 139°50'0 0.0
2018-Feb-12 17:28N 35°34' E 139°50'0 0.0
2018-Feb-12 16:37N 35°34' E 139°50'0 0.0
2018-Feb-12 16:28N 35°34' E 139°50'  

Dump ship's entire track history